Time;durP1;ratioP1;P1;durP2;ratioP2;P2;SDS_P1;SDS_P2;PMS_P1;PMS_P2;Temp;Humidity;BMP_temperature;BMP_pressure;BME280_temperature;BME280_humidity;BME280_pressure;Samples;Min_cycle;Max_cycle;Signal;HPM_P1;HPM_P2
2022/03/18 00:02:08;;;;;;;8.47;4.73;;;9.20;99.90;;;;;;4994389;28;20834;-69
2022/03/18 00:04:34;;;;;;;8.50;4.47;;;9.10;99.90;;;;;;4994142;28;20434;-69
2022/03/18 00:07:00;;;;;;;7.33;5.00;;;9.20;99.90;;;;;;4990276;28;20433;-69
2022/03/18 00:09:26;;;;;;;8.17;4.90;;;9.20;99.90;;;;;;4986929;28;21070;-70
2022/03/18 00:11:52;;;;;;;9.23;4.93;;;9.20;99.90;;;;;;4987355;28;20794;-69
2022/03/18 00:14:19;;;;;;;11.43;5.27;;;9.10;99.90;;;;;;4990926;28;20234;-70
2022/03/18 00:16:45;;;;;;;8.83;4.27;;;9.30;99.90;;;;;;4989508;28;20431;-70
2022/03/18 00:19:11;;;;;;;8.97;4.50;;;9.20;99.90;;;;;;4989287;28;20792;-70
2022/03/18 00:21:37;;;;;;;7.20;3.80;;;9.20;99.90;;;;;;4989962;28;20493;-69
2022/03/18 00:24:05;;;;;;;7.40;4.33;;;9.20;99.90;;;;;;4990092;28;20260;-69
2022/03/18 00:26:31;;;;;;;7.93;4.37;;;9.20;99.90;;;;;;4988405;28;20206;-69
2022/03/18 00:28:57;;;;;;;8.80;4.77;;;9.20;99.90;;;;;;4990862;28;20473;-69
2022/03/18 00:31:23;;;;;;;8.83;4.60;;;9.10;99.90;;;;;;4988969;28;20194;-70
2022/03/18 00:33:49;;;;;;;9.13;4.37;;;10.90;99.90;;;;;;4991898;28;20426;-69
2022/03/18 00:36:14;;;;;;;11.83;4.43;;;9.10;99.90;;;;;;4991826;28;20187;-72
2022/03/18 00:38:40;;;;;;;12.70;4.97;;;9.10;99.90;;;;;;4989194;28;20335;-72
2022/03/18 00:41:07;;;;;;;6.27;4.40;;;9.10;99.90;;;;;;4989673;28;20650;-72
2022/03/18 00:43:32;;;;;;;7.90;4.13;;;9.10;99.90;;;;;;4989632;28;20179;-72
2022/03/18 00:45:58;;;;;;;9.53;4.67;;;9.20;99.90;;;;;;4985701;28;21054;-72
2022/03/18 00:53:53;;;;;;;9.47;5.07;;;9.10;99.90;;;;;;4989065;28;20422;-72
2022/03/18 00:56:19;;;;;;;5.70;4.33;;;9.10;99.90;;;;;;4989391;28;20425;-72
2022/03/18 00:58:44;;;;;;;8.80;4.67;;;9.00;99.90;;;;;;4988612;28;20491;-72
2022/03/18 01:01:10;;;;;;;9.70;4.77;;;9.00;99.90;;;;;;4987073;28;20186;-72
2022/03/18 01:03:36;;;;;;;8.80;4.23;;;9.30;99.90;;;;;;5004296;28;20174;-72
2022/03/18 01:06:01;;;;;;;7.67;4.53;;;9.00;99.90;;;;;;4988688;28;20182;-72
2022/03/18 01:08:28;;;;;;;4.80;4.30;;;9.00;99.90;;;;;;4989189;28;20272;-71
2022/03/18 01:10:54;;;;;;;5.97;4.10;;;9.00;99.90;;;;;;4989568;28;20175;-72
2022/03/18 01:13:21;;;;;;;8.57;4.50;;;8.90;99.90;;;;;;4995625;28;20436;-71
2022/03/18 01:15:46;;;;;;;11.00;5.17;;;8.90;99.90;;;;;;4988714;28;20271;-72
2022/03/18 01:18:12;;;;;;;11.80;4.80;;;8.80;99.90;;;;;;4988285;28;20539;-72
2022/03/18 01:20:37;;;;;;;9.17;4.60;;;8.90;99.90;;;;;;5001609;28;20186;-72
2022/03/18 01:23:06;;;;;;;10.87;4.87;;;8.80;99.90;;;;;;5005012;28;20203;-72
2022/03/18 01:25:35;;;;;;;10.60;5.00;;;8.80;99.90;;;;;;4988619;28;20513;-72
2022/03/18 01:28:01;;;;;;;15.20;5.27;;;8.80;99.90;;;;;;4988901;28;20536;-72
2022/03/18 01:30:29;;;;;;;13.40;5.20;;;8.80;99.90;;;;;;4989299;28;20437;-71
2022/03/18 01:32:55;;;;;;;8.33;4.87;;;8.70;99.90;;;;;;4986102;28;20449;-72
2022/03/18 01:35:20;;;;;;;10.13;4.80;;;8.50;99.90;;;;;;4988254;28;20540;-72
2022/03/18 01:37:46;;;;;;;7.77;4.63;;;8.70;99.90;;;;;;4988352;28;20209;-73
2022/03/18 01:40:11;;;;;;;8.00;4.50;;;8.60;99.90;;;;;;4988803;28;20759;-72
2022/03/18 01:42:37;;;;;;;13.00;4.77;;;8.60;99.90;;;;;;4987628;28;20214;-71
2022/03/18 01:45:03;;;;;;;11.13;5.03;;;8.60;99.90;;;;;;4988727;28;20190;-72
2022/03/18 01:47:34;;;;;;;8.77;5.03;;;8.60;99.90;;;;;;4987786;28;20296;-72
2022/03/18 01:50:00;;;;;;;10.87;5.00;;;8.50;99.90;;;;;;4980684;28;20186;-72
2022/03/18 01:52:26;;;;;;;10.13;4.80;;;8.60;99.90;;;;;;4976661;28;20571;-71
2022/03/18 01:54:53;;;;;;;11.53;5.10;;;8.50;99.90;;;;;;4986538;28;20447;-72
2022/03/18 01:57:21;;;;;;;12.87;5.30;;;8.60;99.90;;;;;;4985815;28;20820;-72
2022/03/18 01:59:48;;;;;;;7.67;4.70;;;8.60;99.90;;;;;;4988525;28;20448;-72
2022/03/18 02:02:15;;;;;;;9.93;4.90;;;8.60;99.90;;;;;;4988412;28;20463;-72
2022/03/18 02:04:41;;;;;;;11.40;4.73;;;8.60;99.90;;;;;;4990925;28;20455;-72
2022/03/18 02:07:07;;;;;;;9.50;4.50;;;8.60;99.90;;;;;;4996494;28;20897;-72
2022/03/18 02:09:33;;;;;;;8.90;4.83;;;8.60;99.90;;;;;;4988145;28;20456;-72
2022/03/18 02:12:00;;;;;;;7.37;4.73;;;8.60;99.90;;;;;;4985951;28;20198;-72
2022/03/18 02:14:38;;;;;;;7.00;4.27;;;8.60;99.90;;;;;;4987862;28;20270;-72
2022/03/18 02:17:09;;;;;;;9.70;4.13;;;8.70;99.90;;;;;;4986531;28;20510;-71
2022/03/18 02:19:36;;;;;;;11.47;4.40;;;8.70;99.90;;;;;;4988518;28;20440;-71
2022/03/18 02:22:10;;;;;;;10.80;5.03;;;8.70;99.90;;;;;;4987730;28;21016;-72
2022/03/18 02:24:39;;;;;;;6.67;4.03;;;8.70;99.90;;;;;;4985527;28;20492;-72
2022/03/18 02:27:05;;;;;;;10.07;4.67;;;8.60;99.90;;;;;;4997861;28;20408;-72
2022/03/18 02:29:31;;;;;;;7.60;3.50;;;8.60;99.90;;;;;;4999385;28;20542;-72
2022/03/18 02:31:57;;;;;;;8.97;4.37;;;8.60;99.90;;;;;;4988502;28;20239;-72
2022/03/18 02:34:23;;;;;;;6.77;4.27;;;8.60;99.90;;;;;;4993168;28;20781;-72
2022/03/18 02:36:49;;;;;;;7.80;3.90;;;8.60;99.90;;;;;;4987652;28;20797;-72
2022/03/18 02:39:15;;;;;;;11.63;4.20;;;8.60;99.90;;;;;;4987601;28;20461;-72
2022/03/18 02:41:41;;;;;;;10.90;4.57;;;8.60;99.90;;;;;;4987352;28;20527;-72
2022/03/18 02:44:07;;;;;;;8.13;3.90;;;8.60;99.90;;;;;;4988133;28;20183;-72
2022/03/18 02:46:32;;;;;;;7.77;4.60;;;8.70;99.90;;;;;;4987348;28;20481;-71
2022/03/18 02:49:03;;;;;;;8.60;4.27;;;8.60;99.90;;;;;;4987545;28;20202;-72
2022/03/18 02:51:29;;;;;;;6.90;4.03;;;8.60;99.90;;;;;;4980307;28;20186;-72
2022/03/18 02:53:56;;;;;;;7.93;4.40;;;8.60;99.90;;;;;;4987013;28;20416;-72
2022/03/18 02:56:22;;;;;;;8.87;4.13;;;8.60;99.90;;;;;;4987726;28;20914;-72
2022/03/18 02:58:47;;;;;;;10.67;4.23;;;8.60;99.90;;;;;;4987138;28;20452;-72
2022/03/18 03:01:13;;;;;;;11.73;4.20;;;8.50;99.90;;;;;;4987477;28;20437;-72
2022/03/18 03:03:38;;;;;;;9.57;4.60;;;8.50;99.90;;;;;;4987008;28;20187;-72
2022/03/18 03:08:48;;;;;;;7.00;4.20;;;8.60;99.90;;;;;;4987554;28;20208;-71
2022/03/18 03:11:14;;;;;;;6.30;4.13;;;8.50;99.90;;;;;;4987451;28;20424;-72
2022/03/18 03:13:40;;;;;;;11.37;4.17;;;8.50;99.90;;;;;;4987808;28;20622;-71
2022/03/18 03:16:06;;;;;;;7.73;4.03;;;8.50;99.90;;;;;;4984888;28;20660;-72
2022/03/18 03:18:31;;;;;;;14.27;4.20;;;8.50;99.90;;;;;;4987957;28;20425;-73
2022/03/18 03:20:58;;;;;;;12.17;4.33;;;8.40;99.90;;;;;;4987002;28;20427;-72
2022/03/18 03:23:25;;;;;;;8.13;4.43;;;8.40;99.90;;;;;;4998405;28;20296;-71
2022/03/18 03:25:50;;;;;;;16.47;4.23;;;8.40;99.90;;;;;;4993336;28;20491;-72
2022/03/18 03:28:19;;;;;;;10.27;4.40;;;8.40;99.90;;;;;;4995204;28;20468;-72
2022/03/18 03:30:45;;;;;;;8.93;4.20;;;8.50;99.90;;;;;;4993013;28;20185;-72
2022/03/18 03:33:12;;;;;;;9.10;4.57;;;8.50;99.90;;;;;;4989405;28;20424;-72
2022/03/18 03:35:37;;;;;;;8.90;4.20;;;8.50;99.90;;;;;;4990145;28;20473;-72
2022/03/18 03:38:04;;;;;;;8.57;4.00;;;8.40;99.90;;;;;;4990720;28;20547;-72
2022/03/18 03:40:30;;;;;;;10.53;4.77;;;8.40;99.90;;;;;;4990643;28;20452;-72
2022/03/18 03:42:55;;;;;;;10.43;3.63;;;8.40;99.90;;;;;;4989335;28;20498;-71
2022/03/18 03:45:21;;;;;;;9.07;4.43;;;8.40;99.90;;;;;;4991515;28;20181;-72
2022/03/18 03:47:47;;;;;;;9.43;4.10;;;8.40;99.90;;;;;;4990263;28;20290;-72
2022/03/18 03:50:13;;;;;;;9.30;4.33;;;8.40;99.90;;;;;;4989673;28;20269;-71
2022/03/18 03:52:40;;;;;;;12.90;4.20;;;8.40;99.90;;;;;;4990964;28;20726;-72
2022/03/18 03:55:07;;;;;;;7.50;4.47;;;8.40;99.90;;;;;;4990380;28;20455;-73
2022/03/18 03:57:33;;;;;;;10.53;4.27;;;8.30;99.90;;;;;;4990564;28;20456;-71
2022/03/18 03:59:59;;;;;;;8.80;3.73;;;8.30;99.90;;;;;;4991082;28;20445;-72
2022/03/18 04:02:27;;;;;;;9.03;4.43;;;8.30;99.90;;;;;;4996067;28;20337;-71
2022/03/18 04:04:53;;;;;;;10.47;4.53;;;8.20;99.90;;;;;;4998351;28;20585;-71
2022/03/18 04:07:19;;;;;;;10.03;4.30;;;8.20;99.90;;;;;;4989808;28;20440;-72
2022/03/18 04:09:47;;;;;;;13.97;4.40;;;8.20;99.90;;;;;;4985965;28;20433;-71
2022/03/18 04:12:13;;;;;;;10.20;4.90;;;8.20;99.90;;;;;;4988848;28;20184;-72
2022/03/18 04:14:39;;;;;;;14.63;5.03;;;8.20;99.90;;;;;;4998831;28;20451;-71
2022/03/18 04:17:04;;;;;;;9.07;4.60;;;8.10;99.90;;;;;;4989409;28;20183;-71
2022/03/18 04:19:30;;;;;;;7.57;4.40;;;8.20;99.90;;;;;;4991565;28;20181;-71
2022/03/18 04:21:56;;;;;;;11.67;4.60;;;7.90;99.90;;;;;;4989433;28;20209;-72
2022/03/18 04:24:22;;;;;;;9.13;4.10;;;8.10;99.90;;;;;;4989792;28;20426;-72
2022/03/18 04:26:47;;;;;;;6.10;3.97;;;8.10;99.90;;;;;;4999226;28;20224;-72
2022/03/18 04:29:13;;;;;;;12.33;4.33;;;8.00;99.90;;;;;;4990896;28;20649;-72
2022/03/18 04:31:42;;;;;;;9.20;4.60;;;8.00;99.90;;;;;;4988436;28;20529;-71
2022/03/18 04:34:08;;;;;;;6.63;4.00;;;8.00;99.90;;;;;;4996552;28;20185;-72
2022/03/18 04:36:34;;;;;;;7.20;4.03;;;8.00;99.90;;;;;;4989841;28;20434;-71
2022/03/18 04:39:01;;;;;;;8.63;4.27;;;8.00;99.90;;;;;;4990437;28;20235;-72
2022/03/18 04:41:27;;;;;;;7.67;4.33;;;8.00;99.90;;;;;;4988259;28;20722;-71
2022/03/18 04:43:53;;;;;;;10.23;4.70;;;7.90;99.90;;;;;;4988203;28;20523;-71
2022/03/18 04:46:18;;;;;;;12.30;4.10;;;7.90;99.90;;;;;;4988256;28;20180;-72
2022/03/18 04:48:44;;;;;;;11.77;5.20;;;7.90;99.90;;;;;;4990178;28;20282;-73
2022/03/18 04:51:09;;;;;;;8.33;4.63;;;7.80;99.90;;;;;;4988946;28;20269;-71
2022/03/18 04:53:36;;;;;;;13.83;4.70;;;7.80;99.90;;;;;;4989573;28;20544;-71
2022/03/18 04:56:01;;;;;;;8.63;4.77;;;8.00;99.90;;;;;;4989473;28;20596;-72
2022/03/18 04:58:27;;;;;;;11.27;4.50;;;7.80;99.90;;;;;;4988663;28;20501;-72
2022/03/18 05:00:53;;;;;;;8.97;4.30;;;7.70;99.90;;;;;;4986923;28;20609;-72
2022/03/18 05:03:18;;;;;;;15.50;5.30;;;7.70;99.90;;;;;;5000504;28;20213;-72
2022/03/18 05:05:44;;;;;;;12.60;4.67;;;7.70;99.90;;;;;;4989414;28;20194;-72
2022/03/18 05:08:09;;;;;;;12.73;5.10;;;7.60;99.90;;;;;;4988821;28;20197;-72
2022/03/18 05:10:37;;;;;;;11.40;4.90;;;7.60;99.90;;;;;;4989975;28;20209;-72
2022/03/18 05:13:02;;;;;;;9.13;4.80;;;7.60;99.90;;;;;;4985436;28;20439;-71
2022/03/18 05:15:28;;;;;;;9.43;4.33;;;7.60;99.90;;;;;;4997711;28;20452;-72
2022/03/18 05:17:54;;;;;;;7.77;4.00;;;7.60;99.90;;;;;;4989434;28;20430;-71
2022/03/18 05:20:20;;;;;;;11.03;4.90;;;7.60;99.90;;;;;;4987895;28;20184;-72
2022/03/18 05:22:46;;;;;;;10.80;4.80;;;7.60;99.90;;;;;;4987900;28;20839;-72
2022/03/18 05:25:13;;;;;;;9.87;4.77;;;7.60;99.90;;;;;;4999978;28;20451;-72
2022/03/18 05:27:44;;;;;;;11.57;4.83;;;7.60;99.90;;;;;;5003259;28;20567;-72
2022/03/18 05:30:14;;;;;;;13.57;5.57;;;7.60;99.90;;;;;;4987129;28;20431;-72
2022/03/18 05:32:40;;;;;;;11.10;5.70;;;7.60;99.90;;;;;;4985529;28;20808;-71
2022/03/18 05:35:06;;;;;;;9.53;4.70;;;7.60;99.90;;;;;;4986607;28;20446;-72
2022/03/18 05:37:32;;;;;;;9.77;5.90;;;7.60;99.90;;;;;;4983776;28;20492;-71
2022/03/18 05:39:57;;;;;;;12.97;6.30;;;7.50;99.90;;;;;;4996802;28;20576;-71
2022/03/18 05:42:23;;;;;;;16.30;5.90;;;7.50;99.90;;;;;;4989311;28;20282;-71
2022/03/18 05:44:49;;;;;;;8.37;5.30;;;7.60;99.90;;;;;;4986903;28;20306;-71
2022/03/18 05:47:14;;;;;;;11.00;5.30;;;7.60;99.90;;;;;;4995279;28;21707;-72
2022/03/18 05:49:40;;;;;;;12.20;5.50;;;7.60;99.90;;;;;;4994943;28;20192;-71
2022/03/18 05:52:05;;;;;;;11.20;5.30;;;7.60;99.90;;;;;;4995205;28;20280;-71
2022/03/18 05:54:31;;;;;;;12.23;5.33;;;7.60;99.90;;;;;;4992694;28;20200;-72
2022/03/18 05:56:56;;;;;;;10.67;5.47;;;7.60;99.90;;;;;;4991299;28;20252;-71
2022/03/18 05:59:27;;;;;;;14.17;6.07;;;7.80;99.90;;;;;;4995557;28;20181;-72
2022/03/18 06:01:54;;;;;;;9.87;5.30;;;7.70;99.90;;;;;;4986158;28;20223;-72
2022/03/18 06:04:20;;;;;;;13.17;5.57;;;7.60;99.90;;;;;;4994711;28;20550;-72
2022/03/18 06:06:47;;;;;;;8.10;4.77;;;7.40;99.90;;;;;;4988430;28;20416;-71
2022/03/18 06:12:01;;;;;;;15.80;5.33;;;7.80;99.90;;;;;;4980654;28;20431;-72
2022/03/18 06:14:28;;;;;;;11.53;5.60;;;7.80;99.90;;;;;;4987274;28;20440;-71
2022/03/18 06:16:56;;;;;;;11.27;5.43;;;7.90;99.90;;;;;;4986281;28;20453;-72
2022/03/18 06:19:24;;;;;;;14.97;5.93;;;7.90;99.90;;;;;;4977756;28;20432;-71
2022/03/18 06:21:50;;;;;;;10.43;6.40;;;8.00;99.90;;;;;;4986060;28;21010;-71
2022/03/18 06:24:17;;;;;;;10.40;6.53;;;8.00;99.90;;;;;;4987999;28;20511;-71
2022/03/18 06:26:42;;;;;;;9.90;5.80;;;8.10;99.90;;;;;;4988107;28;20595;-71
2022/03/18 06:29:08;;;;;;;10.50;5.63;;;8.20;99.90;;;;;;4987805;28;21072;-71
2022/03/18 06:31:35;;;;;;;10.67;6.00;;;8.30;99.90;;;;;;4985634;28;20212;-71
2022/03/18 06:34:01;;;;;;;14.43;6.13;;;8.40;99.90;;;;;;4990031;28;20177;-72
2022/03/18 06:36:28;;;;;;;10.50;6.70;;;8.50;99.90;;;;;;5006426;28;20451;-72
2022/03/18 06:38:53;;;;;;;8.77;5.47;;;8.60;99.90;;;;;;4999663;28;20460;-71
2022/03/18 06:41:19;;;;;;;14.17;6.30;;;8.60;99.90;;;;;;4986256;28;20509;-72
2022/03/18 06:43:49;;;;;;;11.73;5.50;;;8.70;99.90;;;;;;4992432;28;20183;-71
2022/03/18 06:46:15;;;;;;;12.10;6.43;;;8.70;99.90;;;;;;4989790;28;20711;-71
2022/03/18 06:48:41;;;;;;;8.50;4.70;;;8.70;99.90;;;;;;4989063;28;20441;-71
2022/03/18 06:51:08;;;;;;;10.20;5.30;;;8.80;99.90;;;;;;4981462;28;20241;-72
2022/03/18 06:53:34;;;;;;;10.30;5.43;;;8.80;99.90;;;;;;4987907;28;20433;-71
2022/03/18 06:56:00;;;;;;;12.20;6.10;;;8.90;99.90;;;;;;4986405;28;20420;-71
2022/03/18 06:58:27;;;;;;;12.47;5.33;;;9.20;99.90;;;;;;4987173;28;20288;-71
2022/03/18 07:00:53;;;;;;;12.60;5.70;;;8.90;99.90;;;;;;4987230;28;20186;-72
2022/03/18 07:03:19;;;;;;;8.53;5.47;;;9.10;99.90;;;;;;4996300;28;20458;-72
2022/03/18 07:05:45;;;;;;;11.80;5.43;;;9.10;99.90;;;;;;4986133;28;20456;-71
2022/03/18 07:08:10;;;;;;;15.43;6.10;;;9.20;99.90;;;;;;4988310;28;20281;-72
2022/03/18 07:10:36;;;;;;;10.23;4.83;;;9.20;99.90;;;;;;4987049;28;20174;-72
2022/03/18 07:13:01;;;;;;;11.90;5.60;;;9.20;99.90;;;;;;4985612;28;20233;-72
2022/03/18 07:15:27;;;;;;;14.73;6.10;;;9.30;99.90;;;;;;4987534;28;20241;-72
2022/03/18 07:17:55;;;;;;;11.57;5.20;;;9.40;99.90;;;;;;4985945;28;20693;-72
2022/03/18 07:20:31;;;;;;;11.80;5.30;;;9.60;99.90;;;;;;4994196;28;20178;-72
2022/03/18 07:23:14;;;;;;;14.10;5.57;;;9.70;99.90;;;;;;4986781;28;20564;-72
2022/03/18 07:25:46;;;;;;;12.33;5.60;;;9.70;99.90;;;;;;4986541;28;20516;-73
2022/03/18 07:28:14;;;;;;;8.13;4.47;;;9.70;99.90;;;;;;5000314;28;20437;-73
2022/03/18 07:30:41;;;;;;;12.20;4.90;;;10.00;99.90;;;;;;4986381;28;20544;-73
2022/03/18 07:33:07;;;;;;;12.20;5.10;;;10.50;99.90;;;;;;4978294;28;21067;-73
2022/03/18 07:35:34;;;;;;;10.73;4.97;;;10.70;99.90;;;;;;4982921;28;20532;-73
2022/03/18 07:38:00;;;;;;;10.57;4.87;;;11.00;99.90;;;;;;4987220;28;20244;-73
2022/03/18 07:40:26;;;;;;;14.27;5.00;;;11.20;99.90;;;;;;4978694;28;20451;-73
2022/03/18 07:42:54;;;;;;;10.50;4.90;;;11.20;99.90;;;;;;4984563;28;20488;-75
2022/03/18 07:45:28;;;;;;;17.70;4.60;;;11.10;99.90;;;;;;4989127;28;20497;-74
2022/03/18 07:47:56;;;;;;;12.23;4.90;;;11.00;99.90;;;;;;4987381;28;20458;-74
2022/03/18 07:50:25;;;;;;;13.10;4.50;;;10.80;99.90;;;;;;4985751;28;20427;-74
2022/03/18 07:52:53;;;;;;;12.97;4.67;;;10.80;99.90;;;;;;4985386;28;20537;-74
2022/03/18 07:55:20;;;;;;;10.20;4.70;;;10.80;99.90;;;;;;4984215;28;20422;-74
2022/03/18 07:57:46;;;;;;;9.80;5.00;;;10.90;99.90;;;;;;4979212;28;20991;-74
2022/03/18 08:00:14;;;;;;;10.13;4.87;;;10.90;99.90;;;;;;4985757;28;20441;-74
2022/03/18 08:02:41;;;;;;;11.97;5.53;;;10.90;99.90;;;;;;4985555;28;20297;-74
2022/03/18 08:05:07;;;;;;;14.63;5.40;;;11.00;99.90;;;;;;4994743;28;20448;-74
2022/03/18 08:07:35;;;;;;;15.13;6.00;;;11.20;99.90;;;;;;4995819;28;20465;-74
2022/03/18 08:10:01;;;;;;;14.67;5.80;;;11.40;99.90;;;;;;4989794;28;20863;-74
2022/03/18 08:12:31;;;;;;;12.17;6.00;;;11.60;99.90;;;;;;4989776;28;20453;-74
2022/03/18 08:15:02;;;;;;;9.17;6.33;;;11.80;99.90;;;;;;4991208;28;20185;-74
2022/03/18 08:17:28;;;;;;;14.83;6.80;;;12.10;99.90;;;;;;4990087;28;20518;-73
2022/03/18 08:19:54;;;;;;;12.90;7.17;;;12.30;99.90;;;;;;4992478;28;20438;-73
2022/03/18 08:22:21;;;;;;;11.43;6.73;;;12.50;99.90;;;;;;4990414;28;20211;-73
2022/03/18 08:24:47;;;;;;;17.20;6.93;;;12.60;99.90;;;;;;4990455;28;20179;-73
2022/03/18 08:27:12;;;;;;;12.80;7.07;;;12.90;99.90;;;;;;4989217;28;20429;-73
2022/03/18 08:29:38;;;;;;;11.67;6.40;;;12.90;99.90;;;;;;4991277;28;20186;-73
2022/03/18 08:32:05;;;;;;;9.87;5.90;;;13.10;99.90;;;;;;4989824;28;20211;-73
2022/03/18 08:34:31;;;;;;;11.50;6.87;;;13.10;99.90;;;;;;4991317;28;20430;-74
2022/03/18 08:36:57;;;;;;;11.93;7.30;;;;;;;;;;4990030;28;20517;-73
2022/03/18 08:39:24;;;;;;;14.70;6.63;;;13.40;99.90;;;;;;4991922;28;20660;-73
2022/03/18 08:41:49;;;;;;;13.17;7.00;;;13.30;99.90;;;;;;4990190;28;20634;-73
2022/03/18 08:44:19;;;;;;;11.87;6.47;;;13.50;99.90;;;;;;4990142;28;20777;-73
2022/03/18 08:46:45;;;;;;;12.23;6.90;;;13.50;99.90;;;;;;4996878;28;20189;-73
2022/03/18 08:49:11;;;;;;;9.23;6.20;;;13.60;99.90;;;;;;5003148;28;20430;-73
2022/03/18 08:51:36;;;;;;;13.73;7.27;;;13.80;99.90;;;;;;4989801;28;20439;-74
2022/03/18 08:54:02;;;;;;;13.27;6.97;;;12.60;99.90;;;;;;4989281;28;20175;-73
2022/03/18 08:56:28;;;;;;;13.10;7.20;;;14.80;99.90;;;;;;4990276;28;20606;-74
2022/03/18 08:58:54;;;;;;;15.00;8.53;;;13.80;99.90;;;;;;4991154;28;20304;-74
2022/03/18 09:01:19;;;;;;;11.17;7.67;;;15.60;99.90;;;;;;4988499;28;20190;-74
2022/03/18 09:03:45;;;;;;;14.80;7.30;;;15.80;99.90;;;;;;4998535;28;20211;-74
2022/03/18 09:06:11;;;;;;;14.13;7.40;;;16.30;99.90;;;;;;4999158;28;20171;-74
2022/03/18 09:08:37;;;;;;;12.53;7.67;;;16.90;99.90;;;;;;4989678;28;20301;-74
2022/03/18 09:11:04;;;;;;;13.40;7.47;;;17.20;99.90;;;;;;4985521;28;20434;-74
2022/03/18 09:13:33;;;;;;;14.37;8.30;;;17.30;99.90;;;;;;4987321;28;20436;-74
2022/03/18 09:15:58;;;;;;;18.27;8.07;;;17.20;99.90;;;;;;4988114;28;20794;-73
2022/03/18 09:18:24;;;;;;;14.23;8.47;;;17.10;99.90;;;;;;4991258;28;20518;-74
2022/03/18 09:20:49;;;;;;;15.67;8.10;;;17.00;99.90;;;;;;4989003;28;20290;-73
2022/03/18 09:23:16;;;;;;;14.93;8.63;;;16.80;99.90;;;;;;4988631;28;20195;-74
2022/03/18 09:25:41;;;;;;;18.17;8.90;;;17.10;99.90;;;;;;4989760;28;20172;-74
2022/03/18 09:28:07;;;;;;;16.20;9.40;;;17.20;99.90;;;;;;4989884;28;20454;-74
2022/03/18 09:30:32;;;;;;;16.33;9.90;;;17.40;99.90;;;;;;4989690;28;20603;-74
2022/03/18 09:32:58;;;;;;;13.23;8.17;;;17.50;99.90;;;;;;4988662;28;20222;-73
2022/03/18 09:35:25;;;;;;;20.27;11.30;;;17.80;99.90;;;;;;4990390;28;20621;-74
2022/03/18 09:37:51;;;;;;;22.53;13.20;;;17.70;99.90;;;;;;4988647;28;20195;-74
2022/03/18 09:40:17;;;;;;;19.30;11.97;;;17.20;99.90;;;;;;4989973;28;20460;-73
2022/03/18 09:42:59;;;;;;;19.00;12.10;;;17.20;99.90;;;;;;4988955;28;20925;-73
2022/03/18 09:45:30;;;;;;;20.77;12.77;;;17.90;99.90;;;;;;4990030;28;20171;-73
2022/03/18 09:47:58;;;;;;;19.97;12.70;;;18.50;99.90;;;;;;4988283;28;21027;-73
2022/03/18 09:50:24;;;;;;;18.10;12.30;;;18.80;99.90;;;;;;4989834;28;20530;-73
2022/03/18 09:52:50;;;;;;;19.00;12.57;;;18.80;99.90;;;;;;4987730;28;20477;-74
2022/03/18 09:55:16;;;;;;;20.50;13.57;;;18.70;99.90;;;;;;4989461;28;20434;-74
2022/03/18 09:57:42;;;;;;;26.03;13.90;;;18.50;99.90;;;;;;4990125;28;20996;-74
2022/03/18 10:00:08;;;;;;;20.27;13.57;;;18.50;99.90;;;;;;5001817;28;20216;-74
2022/03/18 10:02:34;;;;;;;23.00;14.67;;;19.00;99.90;;;;;;4991796;28;20300;-74
2022/03/18 10:05:02;;;;;;;22.50;13.87;;;18.80;99.90;;;;;;5001423;28;20931;-74
2022/03/18 10:07:29;;;;;;;21.20;13.07;;;18.30;99.90;;;;;;4989100;28;20198;-73
2022/03/18 10:10:11;;;;;;;20.23;13.03;;;18.40;99.90;;;;;;4984982;28;20438;-74
2022/03/18 10:12:38;;;;;;;19.97;12.90;;;18.60;99.90;;;;;;4985554;28;20792;-74
2022/03/18 10:15:04;;;;;;;20.97;12.87;;;20.70;99.90;;;;;;4989757;28;20525;-73
2022/03/18 10:17:48;;;;;;;26.90;12.93;;;18.80;99.90;;;;;;4987632;28;20448;-74
2022/03/18 10:20:30;;;;;;;17.73;12.93;;;18.50;99.90;;;;;;4987844;28;20513;-74
2022/03/18 10:23:16;;;;;;;22.10;13.47;;;18.10;99.90;;;;;;4987077;28;20770;-73
2022/03/18 10:25:50;;;;;;;19.20;12.87;;;18.30;99.90;;;;;;4988866;28;20429;-74
2022/03/18 10:28:37;;;;;;;18.43;12.67;;;18.60;99.70;;;;;;4988455;28;20442;-73
2022/03/18 10:31:14;;;;;;;25.60;12.77;;;18.60;99.90;;;;;;4988204;28;20489;-74
2022/03/18 10:37:11;;;;;;;17.63;12.07;;;19.10;98.50;;;;;;4980347;28;20553;-78
2022/03/18 10:39:45;;;;;;;20.13;12.13;;;19.50;97.30;;;;;;4983754;28;20505;-74
2022/03/18 10:42:15;;;;;;;19.23;11.80;;;20.00;97.70;;;;;;4993674;28;20939;-73
2022/03/18 10:44:45;;;;;;;18.70;12.70;;;21.00;95.00;;;;;;4979289;28;20441;-74
2022/03/18 10:47:32;;;;;;;17.53;11.63;;;21.10;91.90;;;;;;4986223;28;20545;-73
2022/03/18 10:50:19;;;;;;;34.03;13.40;;;21.00;92.80;;;;;;4984394;28;20452;-74
2022/03/18 10:52:48;;;;;;;15.50;11.50;;;21.00;93.90;;;;;;4975520;28;20436;-75
2022/03/18 10:55:24;;;;;;;20.40;12.03;;;21.00;92.30;;;;;;4987429;28;20522;-75
2022/03/18 10:57:52;;;;;;;18.03;12.47;;;21.00;93.20;;;;;;4985690;28;20975;-75
2022/03/18 11:00:18;;;;;;;16.70;11.47;;;21.20;92.30;;;;;;4991797;28;20784;-74
2022/03/18 11:02:47;;;;;;;19.27;12.27;;;21.50;91.30;;;;;;4988346;28;20488;-74
2022/03/18 11:05:13;;;;;;;17.50;11.67;;;21.10;89.50;;;;;;4988816;28;20433;-75
2022/03/18 11:07:41;;;;;;;19.50;11.27;;;21.00;91.60;;;;;;4989154;28;20957;-73
2022/03/18 11:12:55;;;;;;;17.67;12.80;;;22.50;86.50;;;;;;4986827;28;20480;-73
2022/03/18 11:15:22;;;;;;;17.80;12.23;;;23.80;81.00;;;;;;4989020;28;20442;-73
2022/03/18 11:17:48;;;;;;;19.30;11.87;;;24.40;76.30;;;;;;4987332;28;20452;-73
2022/03/18 11:20:17;;;;;;;18.03;12.03;;;24.40;71.50;;;;;;4988535;28;20434;-72
2022/03/18 11:22:43;;;;;;;21.07;13.47;;;24.10;74.60;;;;;;4986338;28;20636;-73
2022/03/18 11:25:10;;;;;;;17.57;12.90;;;24.40;69.80;;;;;;4988800;28;20473;-73
2022/03/18 11:27:37;;;;;;;17.07;13.40;;;23.80;71.20;;;;;;4986827;28;20473;-74
2022/03/18 11:30:37;;;;;;;18.27;12.53;;;23.40;75.10;;;;;;5000720;28;20422;-73
2022/03/18 11:33:06;;;;;;;20.07;13.67;;;24.10;73.30;;;;;;4985895;28;20429;-73
2022/03/18 11:35:50;;;;;;;22.97;11.40;;;24.90;66.10;;;;;;4988332;28;20444;-73
2022/03/18 11:38:25;;;;;;;19.40;12.90;;;25.00;65.10;;;;;;4986859;28;20445;-73
2022/03/18 11:40:56;;;;;;;19.37;13.20;;;24.80;62.90;;;;;;4987325;28;20516;-73
2022/03/18 11:43:34;;;;;;;17.10;12.70;;;24.30;64.90;;;;;;4987286;28;20574;-73
2022/03/18 11:46:12;;;;;;;16.83;11.60;;;24.50;65.70;;;;;;4991959;28;20433;-73
2022/03/18 11:48:49;;;;;;;15.30;11.50;;;25.60;60.40;;;;;;4987979;28;20425;-74
2022/03/18 11:51:35;;;;;;;18.83;11.87;;;27.30;52.20;;;;;;4972517;28;20418;-73
2022/03/18 11:54:23;;;;;;;15.57;11.80;;;28.50;52.80;;;;;;4989643;28;20497;-72
2022/03/18 11:56:50;;;;;;;18.30;11.47;;;29.00;53.30;;;;;;4990801;28;20715;-73
2022/03/18 11:59:24;;;;;;;20.83;11.87;;;29.00;53.10;;;;;;5003602;28;20189;-71
2022/03/18 12:01:57;;;;;;;17.93;10.93;;;29.30;53.30;;;;;;5000561;28;20710;-71
2022/03/18 12:04:42;;;;;;;16.30;10.65;;;29.20;50.80;;;;;;4986691;28;20186;-71
2022/03/18 12:07:11;;;;;;;15.00;10.03;;;29.80;50.00;;;;;;4986205;28;20768;-72
2022/03/18 12:09:55;;;;;;;18.08;10.80;;;29.80;51.80;;;;;;4989286;28;20174;-72
2022/03/18 12:12:46;;;;;;;17.52;10.10;;;30.20;42.60;;;;;;4989565;28;20896;-72
2022/03/18 12:15:19;;;;;;;14.63;9.75;;;29.00;46.00;;;;;;4996021;28;20170;-72
2022/03/18 12:17:51;;;;;;;15.75;10.65;;;28.60;47.00;;;;;;4990064;28;20579;-72
2022/03/18 12:20:38;;;;;;;22.30;10.30;;;28.10;48.50;;;;;;4991782;28;20175;-72
2022/03/18 12:23:05;;;;;;;15.90;10.53;;;27.90;52.40;;;;;;4991382;28;20198;-72
2022/03/18 12:25:31;;;;;;;16.50;9.50;;;28.40;47.30;;;;;;4991368;28;20257;-71
2022/03/18 12:27:57;;;;;;;15.53;10.17;;;27.90;48.60;;;;;;4991729;28;20430;-72
2022/03/18 12:30:26;;;;;;;16.57;10.87;;;27.40;52.20;;;;;;4993830;28;20217;-70
2022/03/18 12:32:59;;;;;;;17.57;10.50;;;27.50;52.20;;;;;;4989943;28;20175;-71
2022/03/18 12:35:30;;;;;;;16.00;11.07;;;27.00;51.70;;;;;;4992127;28;20173;-71
2022/03/18 12:38:07;;;;;;;17.53;10.37;;;25.90;51.10;;;;;;4988515;28;20697;-71
2022/03/18 12:40:38;;;;;;;12.83;9.63;;;25.80;51.10;;;;;;4990153;28;20432;-71
2022/03/18 12:43:04;;;;;;;15.97;10.00;;;25.40;50.80;;;;;;4990058;28;20472;-73
2022/03/18 12:45:42;;;;;;;17.67;11.17;;;25.20;50.70;;;;;;4986494;28;20434;-73
2022/03/18 12:48:13;;;;;;;17.23;11.47;;;25.70;51.00;;;;;;4983422;28;20553;-73
2022/03/18 12:50:44;;;;;;;16.13;10.93;;;25.70;51.10;;;;;;4983046;28;20484;-73
2022/03/18 12:53:15;;;;;;;17.10;10.00;;;25.80;51.10;;;;;;4990528;28;20418;-73
2022/03/18 12:55:46;;;;;;;15.23;9.70;;;25.60;51.00;;;;;;4990972;28;20537;-73
2022/03/18 12:58:12;;;;;;;12.80;9.30;;;25.60;51.10;;;;;;4981660;28;20828;-73
2022/03/18 13:00:39;;;;;;;11.77;8.60;;;25.50;50.90;;;;;;4998190;28;20428;-73
2022/03/18 13:03:06;;;;;;;13.00;8.90;;;26.00;51.30;;;;;;4989999;28;20457;-71
2022/03/18 13:05:32;;;;;;;16.43;8.90;;;26.20;51.30;;;;;;4991191;28;20433;-71